sensor_id;sensor_type;location;lat;lon;timestamp;P1;durP1;ratioP1;P2;durP2;ratioP2
76548;SDS011;65391;52.068;4.542;2024-01-15T00:01:56;13.5;;;1.3;;
76548;SDS011;65391;52.068;4.542;2024-01-15T00:04:20;13.5;;;1.3;;
76548;SDS011;65391;52.068;4.542;2024-01-15T00:06:45;13.5;;;1.3;;
76548;SDS011;65391;52.068;4.542;2024-01-15T00:09:10;13.5;;;1.3;;
76548;SDS011;65391;52.068;4.542;2024-01-15T00:11:35;5.3;;;1.1;;
76548;SDS011;65391;52.068;4.542;2024-01-15T00:14:00;5.3;;;1.1;;
76548;SDS011;65391;52.068;4.542;2024-01-15T00:16:25;5.3;;;1.1;;
76548;SDS011;65391;52.068;4.542;2024-01-15T00:18:50;5.3;;;1.1;;
76548;SDS011;65391;52.068;4.542;2024-01-15T00:21:15;5.3;;;1.1;;
76548;SDS011;65391;52.068;4.542;2024-01-15T00:23:42;7.9;;;1.3;;
76548;SDS011;65391;52.068;4.542;2024-01-15T00:26:05;7.9;;;1.3;;
76548;SDS011;65391;52.068;4.542;2024-01-15T00:28:31;7.9;;;1.3;;
76548;SDS011;65391;52.068;4.542;2024-01-15T00:30:55;7.9;;;1.3;;
76548;SDS011;65391;52.068;4.542;2024-01-15T00:33:20;11;;;1.7;;
76548;SDS011;65391;52.068;4.542;2024-01-15T00:35:45;11;;;1.7;;
76548;SDS011;65391;52.068;4.542;2024-01-15T00:38:10;11;;;1.7;;
76548;SDS011;65391;52.068;4.542;2024-01-15T00:40:35;11;;;1.7;;
76548;SDS011;65391;52.068;4.542;2024-01-15T00:43:00;10.7;;;1.1;;
76548;SDS011;65391;52.068;4.542;2024-01-15T00:45:25;10.7;;;1.1;;
76548;SDS011;65391;52.068;4.542;2024-01-15T00:47:50;10.7;;;1.1;;
76548;SDS011;65391;52.068;4.542;2024-01-15T00:50:15;10.7;;;1.1;;
76548;SDS011;65391;52.068;4.542;2024-01-15T00:52:40;12.1;;;1.7;;
76548;SDS011;65391;52.068;4.542;2024-01-15T00:55:06;12.1;;;1.7;;
76548;SDS011;65391;52.068;4.542;2024-01-15T00:57:30;12.1;;;1.7;;
76548;SDS011;65391;52.068;4.542;2024-01-15T00:59:55;12.1;;;1.7;;
76548;SDS011;65391;52.068;4.542;2024-01-15T01:02:20;10;;;1.1;;
76548;SDS011;65391;52.068;4.542;2024-01-15T01:04:45;10;;;1.1;;
76548;SDS011;65391;52.068;4.542;2024-01-15T01:07:10;10;;;1.1;;
76548;SDS011;65391;52.068;4.542;2024-01-15T01:09:35;10;;;1.1;;
76548;SDS011;65391;52.068;4.542;2024-01-15T01:12:00;8.7;;;1.6;;
76548;SDS011;65391;52.068;4.542;2024-01-15T01:14:25;8.7;;;1.6;;
76548;SDS011;65391;52.068;4.542;2024-01-15T01:16:50;8.7;;;1.6;;
76548;SDS011;65391;52.068;4.542;2024-01-15T01:19:15;8.7;;;1.6;;
76548;SDS011;65391;52.068;4.542;2024-01-15T01:21:40;8;;;1.5;;
76548;SDS011;65391;52.068;4.542;2024-01-15T01:24:05;8;;;1.5;;
76548;SDS011;65391;52.068;4.542;2024-01-15T01:26:30;8;;;1.5;;
76548;SDS011;65391;52.068;4.542;2024-01-15T01:28:55;8;;;1.5;;
76548;SDS011;65391;52.068;4.542;2024-01-15T01:31:20;8;;;1.5;;
76548;SDS011;65391;52.068;4.542;2024-01-15T01:33:45;11.3;;;1.4;;
76548;SDS011;65391;52.068;4.542;2024-01-15T01:36:10;11.3;;;1.4;;
76548;SDS011;65391;52.068;4.542;2024-01-15T01:38:35;11.3;;;1.4;;
76548;SDS011;65391;52.068;4.542;2024-01-15T01:41:00;11.3;;;1.4;;
76548;SDS011;65391;52.068;4.542;2024-01-15T01:43:25;10.3;;;1.2;;
76548;SDS011;65391;52.068;4.542;2024-01-15T01:45:50;10.3;;;1.2;;
76548;SDS011;65391;52.068;4.542;2024-01-15T01:48:15;10.3;;;1.2;;
76548;SDS011;65391;52.068;4.542;2024-01-15T01:50:40;10.3;;;1.2;;
76548;SDS011;65391;52.068;4.542;2024-01-15T01:53:05;6.6;;;1.1;;
76548;SDS011;65391;52.068;4.542;2024-01-15T01:55:30;6.6;;;1.1;;
76548;SDS011;65391;52.068;4.542;2024-01-15T01:57:55;6.6;;;1.1;;
76548;SDS011;65391;52.068;4.542;2024-01-15T02:00:20;6.6;;;1.1;;
76548;SDS011;65391;52.068;4.542;2024-01-15T02:02:46;6.3;;;0.9;;
76548;SDS011;65391;52.068;4.542;2024-01-15T02:05:10;6.3;;;0.9;;
76548;SDS011;65391;52.068;4.542;2024-01-15T02:07:35;6.3;;;0.9;;
76548;SDS011;65391;52.068;4.542;2024-01-15T02:10:00;6.3;;;0.9;;
76548;SDS011;65391;52.068;4.542;2024-01-15T02:12:25;3.7;;;0.6;;
76548;SDS011;65391;52.068;4.542;2024-01-15T02:14:50;3.7;;;0.6;;
76548;SDS011;65391;52.068;4.542;2024-01-15T02:17:15;3.7;;;0.6;;
76548;SDS011;65391;52.068;4.542;2024-01-15T02:19:40;3.7;;;0.6;;
76548;SDS011;65391;52.068;4.542;2024-01-15T02:22:05;3.7;;;0.4;;
76548;SDS011;65391;52.068;4.542;2024-01-15T02:24:30;3.7;;;0.4;;
76548;SDS011;65391;52.068;4.542;2024-01-15T02:26:55;3.7;;;0.4;;
76548;SDS011;65391;52.068;4.542;2024-01-15T02:29:20;3.7;;;0.4;;
76548;SDS011;65391;52.068;4.542;2024-01-15T02:31:45;4.2;;;0.6;;
76548;SDS011;65391;52.068;4.542;2024-01-15T02:34:10;4.2;;;0.6;;
76548;SDS011;65391;52.068;4.542;2024-01-15T02:36:35;4.2;;;0.6;;
76548;SDS011;65391;52.068;4.542;2024-01-15T02:39:00;4.2;;;0.6;;
76548;SDS011;65391;52.068;4.542;2024-01-15T02:41:25;4.2;;;0.6;;
76548;SDS011;65391;52.068;4.542;2024-01-15T02:43:50;5.1;;;0.6;;
76548;SDS011;65391;52.068;4.542;2024-01-15T02:46:15;5.1;;;0.6;;
76548;SDS011;65391;52.068;4.542;2024-01-15T02:48:40;5.1;;;0.6;;
76548;SDS011;65391;52.068;4.542;2024-01-15T02:51:05;5.1;;;0.6;;
76548;SDS011;65391;52.068;4.542;2024-01-15T02:53:30;5.1;;;0.8;;
76548;SDS011;65391;52.068;4.542;2024-01-15T02:55:55;5.1;;;0.8;;
76548;SDS011;65391;52.068;4.542;2024-01-15T02:58:20;5.1;;;0.8;;
76548;SDS011;65391;52.068;4.542;2024-01-15T03:00:45;5.1;;;0.8;;
76548;SDS011;65391;52.068;4.542;2024-01-15T03:03:11;6.3;;;0.5;;
76548;SDS011;65391;52.068;4.542;2024-01-15T03:05:35;6.3;;;0.5;;
76548;SDS011;65391;52.068;4.542;2024-01-15T03:08:00;6.3;;;0.5;;
76548;SDS011;65391;52.068;4.542;2024-01-15T03:10:25;6.3;;;0.5;;
76548;SDS011;65391;52.068;4.542;2024-01-15T03:12:50;8.5;;;1;;
76548;SDS011;65391;52.068;4.542;2024-01-15T03:15:15;8.5;;;1;;
76548;SDS011;65391;52.068;4.542;2024-01-15T03:17:41;8.5;;;1;;
76548;SDS011;65391;52.068;4.542;2024-01-15T03:20:06;8.5;;;1;;
76548;SDS011;65391;52.068;4.542;2024-01-15T03:22:30;7;;;0.8;;
76548;SDS011;65391;52.068;4.542;2024-01-15T03:24:55;7;;;0.8;;
76548;SDS011;65391;52.068;4.542;2024-01-15T03:27:20;7;;;0.8;;
76548;SDS011;65391;52.068;4.542;2024-01-15T03:29:45;7;;;0.8;;
76548;SDS011;65391;52.068;4.542;2024-01-15T03:32:10;4.2;;;0.7;;
76548;SDS011;65391;52.068;4.542;2024-01-15T03:34:35;4.2;;;0.7;;
76548;SDS011;65391;52.068;4.542;2024-01-15T03:37:00;4.2;;;0.7;;
76548;SDS011;65391;52.068;4.542;2024-01-15T03:39:25;4.2;;;0.7;;
76548;SDS011;65391;52.068;4.542;2024-01-15T03:41:50;5.1;;;0.7;;
76548;SDS011;65391;52.068;4.542;2024-01-15T03:44:15;5.1;;;0.7;;
76548;SDS011;65391;52.068;4.542;2024-01-15T03:46:40;5.1;;;0.7;;
76548;SDS011;65391;52.068;4.542;2024-01-15T03:49:05;5.1;;;0.7;;
76548;SDS011;65391;52.068;4.542;2024-01-15T03:51:30;5.1;;;0.7;;
76548;SDS011;65391;52.068;4.542;2024-01-15T03:53:55;0.8;;;0.2;;
76548;SDS011;65391;52.068;4.542;2024-01-15T03:56:20;0.8;;;0.2;;
76548;SDS011;65391;52.068;4.542;2024-01-15T03:58:46;0.8;;;0.2;;
76548;SDS011;65391;52.068;4.542;2024-01-15T04:01:10;0.8;;;0.2;;
76548;SDS011;65391;52.068;4.542;2024-01-15T04:03:36;6.4;;;0.6;;
76548;SDS011;65391;52.068;4.542;2024-01-15T04:06:00;6.4;;;0.6;;
76548;SDS011;65391;52.068;4.542;2024-01-15T04:08:25;6.4;;;0.6;;
76548;SDS011;65391;52.068;4.542;2024-01-15T04:10:50;6.4;;;0.6;;
76548;SDS011;65391;52.068;4.542;2024-01-15T04:13:15;4.1;;;0.7;;
76548;SDS011;65391;52.068;4.542;2024-01-15T04:15:40;4.1;;;0.7;;
76548;SDS011;65391;52.068;4.542;2024-01-15T04:18:05;4.1;;;0.7;;
76548;SDS011;65391;52.068;4.542;2024-01-15T04:20:30;4.1;;;0.7;;
76548;SDS011;65391;52.068;4.542;2024-01-15T04:22:55;1.9;;;0.3;;
76548;SDS011;65391;52.068;4.542;2024-01-15T04:25:20;1.9;;;0.3;;
76548;SDS011;65391;52.068;4.542;2024-01-15T04:27:45;1.9;;;0.3;;
76548;SDS011;65391;52.068;4.542;2024-01-15T04:30:11;1.9;;;0.3;;
76548;SDS011;65391;52.068;4.542;2024-01-15T04:32:35;1.4;;;0.3;;
76548;SDS011;65391;52.068;4.542;2024-01-15T04:35:00;1.4;;;0.3;;
76548;SDS011;65391;52.068;4.542;2024-01-15T04:37:25;1.4;;;0.3;;
76548;SDS011;65391;52.068;4.542;2024-01-15T04:39:50;1.4;;;0.3;;
76548;SDS011;65391;52.068;4.542;2024-01-15T04:42:16;5.9;;;0.9;;
76548;SDS011;65391;52.068;4.542;2024-01-15T04:44:40;5.9;;;0.9;;
76548;SDS011;65391;52.068;4.542;2024-01-15T04:47:05;5.9;;;0.9;;
76548;SDS011;65391;52.068;4.542;2024-01-15T04:49:30;5.9;;;0.9;;
76548;SDS011;65391;52.068;4.542;2024-01-15T04:51:55;4.1;;;0.6;;
76548;SDS011;65391;52.068;4.542;2024-01-15T04:54:20;4.1;;;0.6;;
76548;SDS011;65391;52.068;4.542;2024-01-15T04:56:45;4.1;;;0.6;;
76548;SDS011;65391;52.068;4.542;2024-01-15T04:59:10;4.1;;;0.6;;
76548;SDS011;65391;52.068;4.542;2024-01-15T05:01:35;4.1;;;0.6;;
76548;SDS011;65391;52.068;4.542;2024-01-15T05:04:00;6;;;0.7;;
76548;SDS011;65391;52.068;4.542;2024-01-15T05:06:25;6;;;0.7;;
76548;SDS011;65391;52.068;4.542;2024-01-15T05:08:50;6;;;0.7;;
76548;SDS011;65391;52.068;4.542;2024-01-15T05:11:15;6;;;0.7;;
76548;SDS011;65391;52.068;4.542;2024-01-15T05:13:40;3.6;;;0.4;;
76548;SDS011;65391;52.068;4.542;2024-01-15T05:16:05;3.6;;;0.4;;
76548;SDS011;65391;52.068;4.542;2024-01-15T05:18:30;3.6;;;0.4;;
76548;SDS011;65391;52.068;4.542;2024-01-15T05:20:55;3.6;;;0.4;;
76548;SDS011;65391;52.068;4.542;2024-01-15T05:23:20;4.9;;;0.4;;
76548;SDS011;65391;52.068;4.542;2024-01-15T05:25:45;4.9;;;0.4;;
76548;SDS011;65391;52.068;4.542;2024-01-15T05:28:10;4.9;;;0.4;;
76548;SDS011;65391;52.068;4.542;2024-01-15T05:30:35;4.9;;;0.4;;
76548;SDS011;65391;52.068;4.542;2024-01-15T05:33:00;6.7;;;0.6;;
76548;SDS011;65391;52.068;4.542;2024-01-15T05:35:25;6.7;;;0.6;;
76548;SDS011;65391;52.068;4.542;2024-01-15T05:37:50;6.7;;;0.6;;
76548;SDS011;65391;52.068;4.542;2024-01-15T05:40:15;6.7;;;0.6;;
76548;SDS011;65391;52.068;4.542;2024-01-15T05:42:41;5.4;;;0.8;;
76548;SDS011;65391;52.068;4.542;2024-01-15T05:45:06;5.4;;;0.8;;
76548;SDS011;65391;52.068;4.542;2024-01-15T05:47:30;5.4;;;0.8;;
76548;SDS011;65391;52.068;4.542;2024-01-15T05:49:55;5.4;;;0.8;;
76548;SDS011;65391;52.068;4.542;2024-01-15T05:52:20;4.9;;;0.4;;
76548;SDS011;65391;52.068;4.542;2024-01-15T05:54:45;4.9;;;0.4;;
76548;SDS011;65391;52.068;4.542;2024-01-15T05:57:10;4.9;;;0.4;;
76548;SDS011;65391;52.068;4.542;2024-01-15T05:59:35;4.9;;;0.4;;
76548;SDS011;65391;52.068;4.542;2024-01-15T06:02:00;3.7;;;0.4;;
76548;SDS011;65391;52.068;4.542;2024-01-15T06:04:26;3.7;;;0.4;;
76548;SDS011;65391;52.068;4.542;2024-01-15T06:06:50;3.7;;;0.4;;
76548;SDS011;65391;52.068;4.542;2024-01-15T06:09:15;3.7;;;0.4;;
76548;SDS011;65391;52.068;4.542;2024-01-15T06:11:40;3.7;;;0.4;;
76548;SDS011;65391;52.068;4.542;2024-01-15T06:14:05;6.3;;;0.7;;
76548;SDS011;65391;52.068;4.542;2024-01-15T06:16:30;6.3;;;0.7;;
76548;SDS011;65391;52.068;4.542;2024-01-15T06:18:55;6.3;;;0.7;;
76548;SDS011;65391;52.068;4.542;2024-01-15T06:21:20;6.3;;;0.7;;
76548;SDS011;65391;52.068;4.542;2024-01-15T06:23:45;7.3;;;0.7;;
76548;SDS011;65391;52.068;4.542;2024-01-15T06:26:11;7.3;;;0.7;;
76548;SDS011;65391;52.068;4.542;2024-01-15T06:28:35;7.3;;;0.7;;
76548;SDS011;65391;52.068;4.542;2024-01-15T06:31:00;7.3;;;0.7;;
76548;SDS011;65391;52.068;4.542;2024-01-15T06:33:25;3.6;;;0.5;;
76548;SDS011;65391;52.068;4.542;2024-01-15T06:35:50;3.6;;;0.5;;
76548;SDS011;65391;52.068;4.542;2024-01-15T06:38:15;3.6;;;0.5;;
76548;SDS011;65391;52.068;4.542;2024-01-15T06:40:41;3.6;;;0.5;;
76548;SDS011;65391;52.068;4.542;2024-01-15T06:43:05;7.3;;;0.5;;
76548;SDS011;65391;52.068;4.542;2024-01-15T06:45:30;7.3;;;0.5;;
76548;SDS011;65391;52.068;4.542;2024-01-15T06:47:55;7.3;;;0.5;;
76548;SDS011;65391;52.068;4.542;2024-01-15T06:50:20;7.3;;;0.5;;
76548;SDS011;65391;52.068;4.542;2024-01-15T06:52:45;2.6;;;0.4;;
76548;SDS011;65391;52.068;4.542;2024-01-15T06:55:10;2.6;;;0.4;;
76548;SDS011;65391;52.068;4.542;2024-01-15T06:57:35;2.6;;;0.4;;
76548;SDS011;65391;52.068;4.542;2024-01-15T07:00:00;2.6;;;0.4;;
76548;SDS011;65391;52.068;4.542;2024-01-15T07:02:25;4.2;;;0.4;;
76548;SDS011;65391;52.068;4.542;2024-01-15T07:04:53;4.2;;;0.4;;
76548;SDS011;65391;52.068;4.542;2024-01-15T07:07:15;4.2;;;0.4;;
76548;SDS011;65391;52.068;4.542;2024-01-15T07:09:40;4.2;;;0.4;;
76548;SDS011;65391;52.068;4.542;2024-01-15T07:12:06;1.7;;;0.2;;
76548;SDS011;65391;52.068;4.542;2024-01-15T07:14:30;1.7;;;0.2;;
76548;SDS011;65391;52.068;4.542;2024-01-15T07:16:55;1.7;;;0.2;;
76548;SDS011;65391;52.068;4.542;2024-01-15T07:19:20;1.7;;;0.2;;
76548;SDS011;65391;52.068;4.542;2024-01-15T07:21:45;1.7;;;0.2;;
76548;SDS011;65391;52.068;4.542;2024-01-15T07:24:10;3.4;;;0.3;;
76548;SDS011;65391;52.068;4.542;2024-01-15T07:26:35;3.4;;;0.3;;
76548;SDS011;65391;52.068;4.542;2024-01-15T07:29:00;3.4;;;0.3;;
76548;SDS011;65391;52.068;4.542;2024-01-15T07:31:26;3.4;;;0.3;;
76548;SDS011;65391;52.068;4.542;2024-01-15T07:33:50;6.8;;;0.6;;
76548;SDS011;65391;52.068;4.542;2024-01-15T07:36:15;6.8;;;0.6;;
76548;SDS011;65391;52.068;4.542;2024-01-15T07:38:40;6.8;;;0.6;;
76548;SDS011;65391;52.068;4.542;2024-01-15T07:41:05;6.8;;;0.6;;
76548;SDS011;65391;52.068;4.542;2024-01-15T07:43:30;2.5;;;0.4;;
76548;SDS011;65391;52.068;4.542;2024-01-15T07:45:55;2.5;;;0.4;;
76548;SDS011;65391;52.068;4.542;2024-01-15T07:48:20;2.5;;;0.4;;
76548;SDS011;65391;52.068;4.542;2024-01-15T07:50:45;2.5;;;0.4;;
76548;SDS011;65391;52.068;4.542;2024-01-15T07:53:10;3.6;;;1.1;;
76548;SDS011;65391;52.068;4.542;2024-01-15T07:55:35;3.6;;;1.1;;
76548;SDS011;65391;52.068;4.542;2024-01-15T07:58:00;3.6;;;1.1;;
76548;SDS011;65391;52.068;4.542;2024-01-15T08:00:25;3.6;;;1.1;;
76548;SDS011;65391;52.068;4.542;2024-01-15T08:02:51;8.4;;;1.3;;
76548;SDS011;65391;52.068;4.542;2024-01-15T08:05:15;8.4;;;1.3;;
76548;SDS011;65391;52.068;4.542;2024-01-15T08:07:40;8.4;;;1.3;;
76548;SDS011;65391;52.068;4.542;2024-01-15T08:10:06;8.4;;;1.3;;
76548;SDS011;65391;52.068;4.542;2024-01-15T08:12:30;5.5;;;1.1;;
76548;SDS011;65391;52.068;4.542;2024-01-15T08:14:55;5.5;;;1.1;;
76548;SDS011;65391;52.068;4.542;2024-01-15T08:17:20;5.5;;;1.1;;
76548;SDS011;65391;52.068;4.542;2024-01-15T08:19:45;5.5;;;1.1;;
76548;SDS011;65391;52.068;4.542;2024-01-15T08:22:10;9.4;;;1.4;;
76548;SDS011;65391;52.068;4.542;2024-01-15T08:24:35;9.4;;;1.4;;
76548;SDS011;65391;52.068;4.542;2024-01-15T08:27:00;9.4;;;1.4;;
76548;SDS011;65391;52.068;4.542;2024-01-15T08:29:25;9.4;;;1.4;;
76548;SDS011;65391;52.068;4.542;2024-01-15T08:31:50;9.4;;;1.4;;
76548;SDS011;65391;52.068;4.542;2024-01-15T08:34:15;8.1;;;1.1;;
76548;SDS011;65391;52.068;4.542;2024-01-15T08:36:41;8.1;;;1.1;;
76548;SDS011;65391;52.068;4.542;2024-01-15T08:39:05;8.1;;;1.1;;
76548;SDS011;65391;52.068;4.542;2024-01-15T08:41:31;8.1;;;1.1;;
76548;SDS011;65391;52.068;4.542;2024-01-15T08:43:55;1.7;;;0.3;;
76548;SDS011;65391;52.068;4.542;2024-01-15T08:46:20;1.7;;;0.3;;
76548;SDS011;65391;52.068;4.542;2024-01-15T08:48:45;1.7;;;0.3;;
76548;SDS011;65391;52.068;4.542;2024-01-15T08:51:10;1.7;;;0.3;;
76548;SDS011;65391;52.068;4.542;2024-01-15T08:53:35;8.4;;;0.7;;
76548;SDS011;65391;52.068;4.542;2024-01-15T08:56:00;8.4;;;0.7;;
76548;SDS011;65391;52.068;4.542;2024-01-15T08:58:25;8.4;;;0.7;;
76548;SDS011;65391;52.068;4.542;2024-01-15T09:00:53;8.4;;;0.7;;
76548;SDS011;65391;52.068;4.542;2024-01-15T09:03:15;5.8;;;0.6;;
76548;SDS011;65391;52.068;4.542;2024-01-15T09:05:40;5.8;;;0.6;;
76548;SDS011;65391;52.068;4.542;2024-01-15T09:08:05;5.8;;;0.6;;
76548;SDS011;65391;52.068;4.542;2024-01-15T09:10:30;5.8;;;0.6;;
76548;SDS011;65391;52.068;4.542;2024-01-15T09:12:59;6.9;;;1;;
76548;SDS011;65391;52.068;4.542;2024-01-15T09:15:20;6.9;;;1;;
76548;SDS011;65391;52.068;4.542;2024-01-15T09:17:45;6.9;;;1;;
76548;SDS011;65391;52.068;4.542;2024-01-15T09:20:11;6.9;;;1;;
76548;SDS011;65391;52.068;4.542;2024-01-15T09:22:37;9;;;0.8;;
76548;SDS011;65391;52.068;4.542;2024-01-15T09:25:00;9;;;0.8;;
76548;SDS011;65391;52.068;4.542;2024-01-15T09:27:26;9;;;0.8;;
76548;SDS011;65391;52.068;4.542;2024-01-15T09:29:50;9;;;0.8;;
76548;SDS011;65391;52.068;4.542;2024-01-15T09:32:16;4.3;;;0.5;;
76548;SDS011;65391;52.068;4.542;2024-01-15T09:34:41;4.3;;;0.5;;
76548;SDS011;65391;52.068;4.542;2024-01-15T09:37:05;4.3;;;0.5;;
76548;SDS011;65391;52.068;4.542;2024-01-15T09:39:30;4.3;;;0.5;;
76548;SDS011;65391;52.068;4.542;2024-01-15T09:41:56;4.3;;;0.5;;
76548;SDS011;65391;52.068;4.542;2024-01-15T09:44:21;6.4;;;0.7;;
76548;SDS011;65391;52.068;4.542;2024-01-15T09:46:46;6.4;;;0.7;;
76548;SDS011;65391;52.068;4.542;2024-01-15T09:49:10;6.4;;;0.7;;
76548;SDS011;65391;52.068;4.542;2024-01-15T09:51:36;6.4;;;0.7;;
76548;SDS011;65391;52.068;4.542;2024-01-15T09:54:00;4.8;;;0.6;;
76548;SDS011;65391;52.068;4.542;2024-01-15T09:56:26;4.8;;;0.6;;
76548;SDS011;65391;52.068;4.542;2024-01-15T09:58:50;4.8;;;0.6;;
76548;SDS011;65391;52.068;4.542;2024-01-15T10:01:16;4.8;;;0.6;;
76548;SDS011;65391;52.068;4.542;2024-01-15T10:03:40;7.5;;;1;;
76548;SDS011;65391;52.068;4.542;2024-01-15T10:06:06;7.5;;;1;;
76548;SDS011;65391;52.068;4.542;2024-01-15T10:08:31;7.5;;;1;;
76548;SDS011;65391;52.068;4.542;2024-01-15T10:10:55;7.5;;;1;;
76548;SDS011;65391;52.068;4.542;2024-01-15T10:13:20;6.4;;;1;;
76548;SDS011;65391;52.068;4.542;2024-01-15T10:15:46;6.4;;;1;;
76548;SDS011;65391;52.068;4.542;2024-01-15T10:18:11;6.4;;;1;;
76548;SDS011;65391;52.068;4.542;2024-01-15T10:20:36;6.4;;;1;;
76548;SDS011;65391;52.068;4.542;2024-01-15T10:23:00;4.6;;;0.6;;
76548;SDS011;65391;52.068;4.542;2024-01-15T10:25:25;4.6;;;0.6;;
76548;SDS011;65391;52.068;4.542;2024-01-15T10:27:59;4.6;;;0.6;;
76548;SDS011;65391;52.068;4.542;2024-01-15T10:30:16;4.6;;;0.6;;
76548;SDS011;65391;52.068;4.542;2024-01-15T10:32:40;4.3;;;0.7;;
76548;SDS011;65391;52.068;4.542;2024-01-15T10:35:07;4.3;;;0.7;;
76548;SDS011;65391;52.068;4.542;2024-01-15T10:37:32;4.3;;;0.7;;
76548;SDS011;65391;52.068;4.542;2024-01-15T10:39:56;4.3;;;0.7;;
76548;SDS011;65391;52.068;4.542;2024-01-15T10:42:20;10.6;;;1.7;;
76548;SDS011;65391;52.068;4.542;2024-01-15T10:44:46;10.6;;;1.7;;
76548;SDS011;65391;52.068;4.542;2024-01-15T10:47:10;10.6;;;1.7;;
76548;SDS011;65391;52.068;4.542;2024-01-15T10:49:35;10.6;;;1.7;;
76548;SDS011;65391;52.068;4.542;2024-01-15T10:52:01;10.6;;;1.7;;
76548;SDS011;65391;52.068;4.542;2024-01-15T10:54:26;5.2;;;0.9;;
76548;SDS011;65391;52.068;4.542;2024-01-15T10:56:50;5.2;;;0.9;;
76548;SDS011;65391;52.068;4.542;2024-01-15T10:59:15;5.2;;;0.9;;
76548;SDS011;65391;52.068;4.542;2024-01-15T11:01:41;5.2;;;0.9;;
76548;SDS011;65391;52.068;4.542;2024-01-15T11:04:05;5.7;;;1.1;;
76548;SDS011;65391;52.068;4.542;2024-01-15T11:06:41;5.7;;;1.1;;
76548;SDS011;65391;52.068;4.542;2024-01-15T11:08:56;5.7;;;1.1;;
76548;SDS011;65391;52.068;4.542;2024-01-15T11:11:21;5.7;;;1.1;;
76548;SDS011;65391;52.068;4.542;2024-01-15T11:13:46;6.6;;;0.7;;
76548;SDS011;65391;52.068;4.542;2024-01-15T11:16:11;6.6;;;0.7;;
76548;SDS011;65391;52.068;4.542;2024-01-15T11:18:36;6.6;;;0.7;;
76548;SDS011;65391;52.068;4.542;2024-01-15T11:21:32;6.6;;;0.7;;
76548;SDS011;65391;52.068;4.542;2024-01-15T11:23:41;5.6;;;0.9;;
76548;SDS011;65391;52.068;4.542;2024-01-15T11:25:51;5.6;;;0.9;;
76548;SDS011;65391;52.068;4.542;2024-01-15T11:28:46;5.6;;;0.9;;
76548;SDS011;65391;52.068;4.542;2024-01-15T11:30:40;5.6;;;0.9;;
76548;SDS011;65391;52.068;4.542;2024-01-15T11:33:05;6.9;;;0.9;;
76548;SDS011;65391;52.068;4.542;2024-01-15T11:35:47;6.9;;;0.9;;
76548;SDS011;65391;52.068;4.542;2024-01-15T11:37:56;6.9;;;0.9;;
76548;SDS011;65391;52.068;4.542;2024-01-15T11:40:21;6.9;;;0.9;;
76548;SDS011;65391;52.068;4.542;2024-01-15T11:42:46;4.7;;;0.9;;
76548;SDS011;65391;52.068;4.542;2024-01-15T11:45:11;4.7;;;0.9;;
76548;SDS011;65391;52.068;4.542;2024-01-15T11:47:53;4.7;;;0.9;;
76548;SDS011;65391;52.068;4.542;2024-01-15T11:50:03;4.7;;;0.9;;
76548;SDS011;65391;52.068;4.542;2024-01-15T11:52:32;9.4;;;1.2;;
76548;SDS011;65391;52.068;4.542;2024-01-15T11:54:54;9.4;;;1.2;;
76548;SDS011;65391;52.068;4.542;2024-01-15T11:59:41;9.4;;;1.2;;
76548;SDS011;65391;52.068;4.542;2024-01-15T12:02:08;9.4;;;1.2;;
76548;SDS011;65391;52.068;4.542;2024-01-15T12:04:31;7.6;;;1.2;;
76548;SDS011;65391;52.068;4.542;2024-01-15T12:06:56;7.6;;;1.2;;
76548;SDS011;65391;52.068;4.542;2024-01-15T12:09:21;7.6;;;1.2;;
76548;SDS011;65391;52.068;4.542;2024-01-15T12:11:48;7.6;;;1.2;;
76548;SDS011;65391;52.068;4.542;2024-01-15T12:14:11;8.1;;;0.9;;
76548;SDS011;65391;52.068;4.542;2024-01-15T12:16:36;8.1;;;0.9;;
76548;SDS011;65391;52.068;4.542;2024-01-15T12:19:01;8.1;;;0.9;;
76548;SDS011;65391;52.068;4.542;2024-01-15T12:21:26;8.1;;;0.9;;
76548;SDS011;65391;52.068;4.542;2024-01-15T12:23:51;9.6;;;0.8;;
76548;SDS011;65391;52.068;4.542;2024-01-15T12:26:16;9.6;;;0.8;;
76548;SDS011;65391;52.068;4.542;2024-01-15T12:28:41;9.6;;;0.8;;
76548;SDS011;65391;52.068;4.542;2024-01-15T12:31:06;9.6;;;0.8;;
76548;SDS011;65391;52.068;4.542;2024-01-15T12:33:31;6.4;;;1;;
76548;SDS011;65391;52.068;4.542;2024-01-15T12:35:56;6.4;;;1;;
76548;SDS011;65391;52.068;4.542;2024-01-15T12:38:21;6.4;;;1;;
76548;SDS011;65391;52.068;4.542;2024-01-15T12:40:46;6.4;;;1;;
76548;SDS011;65391;52.068;4.542;2024-01-15T12:43:11;8;;;1.8;;
76548;SDS011;65391;52.068;4.542;2024-01-15T12:45:36;8;;;1.8;;
76548;SDS011;65391;52.068;4.542;2024-01-15T12:48:01;8;;;1.8;;
76548;SDS011;65391;52.068;4.542;2024-01-15T12:50:26;8;;;1.8;;
76548;SDS011;65391;52.068;4.542;2024-01-15T12:52:51;8.2;;;1.1;;
76548;SDS011;65391;52.068;4.542;2024-01-15T12:55:16;8.2;;;1.1;;
76548;SDS011;65391;52.068;4.542;2024-01-15T12:57:41;8.2;;;1.1;;
76548;SDS011;65391;52.068;4.542;2024-01-15T13:00:06;8.2;;;1.1;;
76548;SDS011;65391;52.068;4.542;2024-01-15T13:02:31;15.5;;;2.5;;
76548;SDS011;65391;52.068;4.542;2024-01-15T13:04:56;15.5;;;2.5;;
76548;SDS011;65391;52.068;4.542;2024-01-15T13:07:21;15.5;;;2.5;;
76548;SDS011;65391;52.068;4.542;2024-01-15T13:09:46;15.5;;;2.5;;
76548;SDS011;65391;52.068;4.542;2024-01-15T13:12:11;15.5;;;2.5;;
76548;SDS011;65391;52.068;4.542;2024-01-15T13:14:36;3.5;;;0.6;;
76548;SDS011;65391;52.068;4.542;2024-01-15T13:17:01;3.5;;;0.6;;
76548;SDS011;65391;52.068;4.542;2024-01-15T13:19:26;3.5;;;0.6;;
76548;SDS011;65391;52.068;4.542;2024-01-15T13:21:51;3.5;;;0.6;;
76548;SDS011;65391;52.068;4.542;2024-01-15T13:24:16;6.2;;;1;;
76548;SDS011;65391;52.068;4.542;2024-01-15T13:26:41;6.2;;;1;;
76548;SDS011;65391;52.068;4.542;2024-01-15T13:29:06;6.2;;;1;;
76548;SDS011;65391;52.068;4.542;2024-01-15T13:31:31;6.2;;;1;;
76548;SDS011;65391;52.068;4.542;2024-01-15T13:33:56;3.6;;;0.9;;
76548;SDS011;65391;52.068;4.542;2024-01-15T13:36:21;3.6;;;0.9;;
76548;SDS011;65391;52.068;4.542;2024-01-15T13:38:46;3.6;;;0.9;;
76548;SDS011;65391;52.068;4.542;2024-01-15T13:41:11;3.6;;;0.9;;
76548;SDS011;65391;52.068;4.542;2024-01-15T13:43:36;3.4;;;0.6;;
76548;SDS011;65391;52.068;4.542;2024-01-15T13:46:01;3.4;;;0.6;;
76548;SDS011;65391;52.068;4.542;2024-01-15T13:48:26;3.4;;;0.6;;
76548;SDS011;65391;52.068;4.542;2024-01-15T13:50:51;3.4;;;0.6;;
76548;SDS011;65391;52.068;4.542;2024-01-15T13:53:16;5.8;;;1.3;;
76548;SDS011;65391;52.068;4.542;2024-01-15T13:55:41;5.8;;;1.3;;
76548;SDS011;65391;52.068;4.542;2024-01-15T13:58:06;5.8;;;1.3;;
76548;SDS011;65391;52.068;4.542;2024-01-15T14:00:31;5.8;;;1.3;;
76548;SDS011;65391;52.068;4.542;2024-01-15T14:02:56;10.1;;;1.5;;
76548;SDS011;65391;52.068;4.542;2024-01-15T14:05:21;10.1;;;1.5;;
76548;SDS011;65391;52.068;4.542;2024-01-15T14:07:46;10.1;;;1.5;;
76548;SDS011;65391;52.068;4.542;2024-01-15T14:10:11;10.1;;;1.5;;
76548;SDS011;65391;52.068;4.542;2024-01-15T14:12:36;6.8;;;1.7;;
76548;SDS011;65391;52.068;4.542;2024-01-15T14:15:01;6.8;;;1.7;;
76548;SDS011;65391;52.068;4.542;2024-01-15T14:17:26;6.8;;;1.7;;
76548;SDS011;65391;52.068;4.542;2024-01-15T14:19:51;6.8;;;1.7;;
76548;SDS011;65391;52.068;4.542;2024-01-15T14:22:16;6.8;;;1.7;;
76548;SDS011;65391;52.068;4.542;2024-01-15T14:24:41;6.3;;;1.1;;
76548;SDS011;65391;52.068;4.542;2024-01-15T14:27:06;6.3;;;1.1;;
76548;SDS011;65391;52.068;4.542;2024-01-15T14:29:31;6.3;;;1.1;;
76548;SDS011;65391;52.068;4.542;2024-01-15T14:31:56;6.3;;;1.1;;
76548;SDS011;65391;52.068;4.542;2024-01-15T14:34:21;9.7;;;1.6;;
76548;SDS011;65391;52.068;4.542;2024-01-15T14:36:46;9.7;;;1.6;;
76548;SDS011;65391;52.068;4.542;2024-01-15T14:39:11;9.7;;;1.6;;
76548;SDS011;65391;52.068;4.542;2024-01-15T14:41:36;9.7;;;1.6;;
76548;SDS011;65391;52.068;4.542;2024-01-15T14:44:01;16;;;2.6;;
76548;SDS011;65391;52.068;4.542;2024-01-15T14:46:26;16;;;2.6;;
76548;SDS011;65391;52.068;4.542;2024-01-15T14:48:51;16;;;2.6;;
76548;SDS011;65391;52.068;4.542;2024-01-15T14:51:16;16;;;2.6;;
76548;SDS011;65391;52.068;4.542;2024-01-15T14:53:41;15.3;;;1.5;;
76548;SDS011;65391;52.068;4.542;2024-01-15T14:56:06;15.3;;;1.5;;
76548;SDS011;65391;52.068;4.542;2024-01-15T14:58:31;15.3;;;1.5;;
76548;SDS011;65391;52.068;4.542;2024-01-15T15:00:56;15.3;;;1.5;;
76548;SDS011;65391;52.068;4.542;2024-01-15T15:03:21;7.9;;;1.2;;
76548;SDS011;65391;52.068;4.542;2024-01-15T15:05:46;7.9;;;1.2;;